UAE803 OMDB-OEJN
Flight info
| Callsign | UAE803 |
|---|---|
| Flight time | 2h 37m |
| Altitude | 34000 |
| Route | KUTLI L519 ATUDO DCT GOLGU DCT RIBOT DCT MIGMA DCT ITRUX Y511 ASMIS T218 IMGUT DCT VEMEM |
| Aircraft | A388/J-SADE2E3FGHIJ3J4J5M1RWXY/LB1D1 |
Departure
| Time | 2026-04-23 13:48 |
|---|---|
| Airport | Dubai International Airport (OMDB) |
Arrival
| Time | 2026-04-23 16:25 |
|---|---|
| Airport | King Abdulaziz International Airport (OEJN) |
| Time | Latitude | Longitude | Altitude | Speed | Heading |
|---|---|---|---|---|---|
| 2026-04-23 12:17 | 25.25502 | 55.35202 | 26 ft | 0 kts | 211° |
| 2026-04-23 13:26 | 25.25517 | 55.35212 | 32 ft | 4 kts | 211° |
| 2026-04-23 13:27 | 25.25527 | 55.35219 | 28 ft | 4 kts | 211° |
| 2026-04-23 13:27 | 25.25550 | 55.35234 | 32 ft | 3 kts | 211° |
| 2026-04-23 13:27 | 25.25566 | 55.35247 | 32 ft | 4 kts | 229° |
| 2026-04-23 13:27 | 25.25573 | 55.35263 | 32 ft | 4 kts | 271° |
| 2026-04-23 13:28 | 25.25567 | 55.35281 | 32 ft | 4 kts | 302° |
| 2026-04-23 13:28 | 25.25553 | 55.35306 | 32 ft | 4 kts | 302° |
| 2026-04-23 13:28 | 25.25550 | 55.35312 | 32 ft | 0 kts | 302° |
| 2026-04-23 13:38 | 25.25561 | 55.35292 | 29 ft | 7 kts | 302° |
| 2026-04-23 13:39 | 25.25598 | 55.35228 | 28 ft | 13 kts | 302° |
| 2026-04-23 13:39 | 25.25653 | 55.35151 | 32 ft | 12 kts | 339° |
| 2026-04-23 13:39 | 25.25718 | 55.35173 | 29 ft | 11 kts | 36° |
| 2026-04-23 13:39 | 25.25788 | 55.35221 | 26 ft | 13 kts | 31° |
| 2026-04-23 13:40 | 25.25870 | 55.35276 | 26 ft | 15 kts | 31° |
| 2026-04-23 13:40 | 25.25936 | 55.35321 | 27 ft | 5 kts | 31° |
| 2026-04-23 13:40 | 25.25972 | 55.35347 | 27 ft | 6 kts | 39° |
| 2026-04-23 13:40 | 25.25981 | 55.35356 | 27 ft | 0 kts | 52° |
| 2026-04-23 13:41 | 25.25986 | 55.35365 | 27 ft | 5 kts | 61° |
| 2026-04-23 13:41 | 25.26011 | 55.35433 | 27 ft | 14 kts | 78° |
| 2026-04-23 13:41 | 25.25993 | 55.35548 | 28 ft | 17 kts | 117° |
| 2026-04-23 13:41 | 25.25926 | 55.35667 | 28 ft | 20 kts | 122° |
| 2026-04-23 13:42 | 25.25850 | 55.35804 | 28 ft | 22 kts | 122° |
| 2026-04-23 13:42 | 25.25765 | 55.35954 | 28 ft | 24 kts | 120° |
| 2026-04-23 13:42 | 25.25676 | 55.36115 | 29 ft | 25 kts | 122° |
| 2026-04-23 13:42 | 25.25580 | 55.36283 | 29 ft | 26 kts | 122° |
| 2026-04-23 13:43 | 25.25482 | 55.36459 | 29 ft | 27 kts | 122° |
| 2026-04-23 13:43 | 25.25380 | 55.36639 | 29 ft | 28 kts | 122° |
| 2026-04-23 13:43 | 25.25276 | 55.36825 | 29 ft | 29 kts | 122° |
| 2026-04-23 13:43 | 25.25171 | 55.37013 | 29 ft | 28 kts | 122° |
| 2026-04-23 13:44 | 25.25074 | 55.37186 | 30 ft | 27 kts | 122° |
| 2026-04-23 13:44 | 25.24974 | 55.37362 | 30 ft | 28 kts | 122° |
| 2026-04-23 13:44 | 25.24880 | 55.37531 | 30 ft | 21 kts | 121° |
| 2026-04-23 13:44 | 25.24809 | 55.37658 | 30 ft | 20 kts | 122° |
| 2026-04-23 13:45 | 25.24736 | 55.37785 | 30 ft | 7 kts | 122° |
| 2026-04-23 13:45 | 25.24727 | 55.37801 | 30 ft | 6 kts | 123° |
| 2026-04-23 13:45 | 25.24689 | 55.37867 | 29 ft | 14 kts | 117° |
| 2026-04-23 13:45 | 25.24668 | 55.37937 | 30 ft | 7 kts | 78° |
| 2026-04-23 13:46 | 25.24693 | 55.37972 | 30 ft | 6 kts | 31° |
| 2026-04-23 13:46 | 25.24728 | 55.37994 | 32 ft | 5 kts | 31° |
| 2026-04-23 13:46 | 25.24756 | 55.38013 | 34 ft | 5 kts | 31° |
| 2026-04-23 13:46 | 25.24788 | 55.38029 | 35 ft | 6 kts | 359° |
| 2026-04-23 13:47 | 25.24821 | 55.37995 | 35 ft | 18 kts | 301° |
| 2026-04-23 13:47 | 25.25020 | 55.37643 | 36 ft | 92 kts | 302° |
| 2026-04-23 13:47 | 25.25464 | 55.36841 | 34 ft | 148 kts | 301° |
| 2026-04-23 13:47 | 25.26034 | 55.35783 | 245 ft | 167 kts | 302° |
| 2026-04-23 13:48 | 25.26625 | 55.34648 | 677 ft | 172 kts | 303° |
| 2026-04-23 13:48 | 25.27262 | 55.33522 | 1139 ft | 171 kts | 305° |
| 2026-04-23 13:48 | 25.27910 | 55.32408 | 1632 ft | 174 kts | 306° |
| 2026-04-23 13:48 | 25.28562 | 55.31290 | 2233 ft | 171 kts | 305° |
| 2026-04-23 13:49 | 25.29162 | 55.30157 | 2764 ft | 172 kts | 295° |
| 2026-04-23 13:49 | 25.29316 | 55.28845 | 3252 ft | 179 kts | 260° |
| 2026-04-23 13:49 | 25.28810 | 55.27549 | 3537 ft | 191 kts | 244° |
| 2026-04-23 13:49 | 25.28191 | 55.26205 | 3761 ft | 199 kts | 245° |
| 2026-04-23 13:50 | 25.27567 | 55.24752 | 4044 ft | 217 kts | 245° |
| 2026-04-23 13:50 | 25.26913 | 55.23239 | 4657 ft | 219 kts | 245° |
| 2026-04-23 13:50 | 25.26261 | 55.21733 | 5446 ft | 217 kts | 244° |
| 2026-04-23 13:50 | 25.25601 | 55.20194 | 5967 ft | 230 kts | 240° |
| 2026-04-23 13:51 | 25.24492 | 55.18832 | 6224 ft | 251 kts | 217° |
| 2026-04-23 13:51 | 25.22959 | 55.17765 | 6550 ft | 269 kts | 211° |
| 2026-04-23 13:51 | 25.21305 | 55.16763 | 7175 ft | 272 kts | 210° |
| 2026-04-23 13:51 | 25.19666 | 55.15762 | 7865 ft | 273 kts | 210° |
| 2026-04-23 13:52 | 25.17989 | 55.14700 | 8546 ft | 276 kts | 211° |
| 2026-04-23 13:52 | 25.16331 | 55.13622 | 9241 ft | 277 kts | 212° |
| 2026-04-23 13:52 | 25.14667 | 55.12525 | 9917 ft | 280 kts | 212° |
| 2026-04-23 13:52 | 25.13001 | 55.11420 | 10371 ft | 291 kts | 212° |
| 2026-04-23 13:53 | 25.11212 | 55.10227 | 10545 ft | 309 kts | 212° |
| 2026-04-23 13:53 | 25.09316 | 55.08966 | 10706 ft | 327 kts | 212° |
| 2026-04-23 13:53 | 25.07347 | 55.07663 | 11214 ft | 332 kts | 211° |
| 2026-04-23 13:53 | 25.05369 | 55.06356 | 11907 ft | 333 kts | 211° |
| 2026-04-23 13:54 | 25.03370 | 55.05035 | 12562 ft | 336 kts | 211° |
| 2026-04-23 13:54 | 25.01406 | 55.03735 | 13251 ft | 338 kts | 211° |
| 2026-04-23 13:54 | 24.99379 | 55.02395 | 13910 ft | 341 kts | 212° |
| 2026-04-23 13:54 | 24.97332 | 55.01041 | 14495 ft | 345 kts | 212° |
| 2026-04-23 13:55 | 24.95259 | 54.99664 | 15064 ft | 350 kts | 212° |
| 2026-04-23 13:55 | 24.93157 | 54.98276 | 15673 ft | 354 kts | 212° |
| 2026-04-23 13:55 | 24.91032 | 54.96873 | 16285 ft | 359 kts | 213° |
| 2026-04-23 13:55 | 24.88877 | 54.95457 | 16903 ft | 363 kts | 213° |
| 2026-04-23 13:56 | 24.86694 | 54.94016 | 17529 ft | 368 kts | 213° |
| 2026-04-23 13:56 | 24.84469 | 54.92587 | 18147 ft | 373 kts | 212° |
| 2026-04-23 13:56 | 24.82175 | 54.91210 | 18700 ft | 377 kts | 211° |
| 2026-04-23 13:56 | 24.79860 | 54.89850 | 19265 ft | 379 kts | 211° |
| 2026-04-23 13:57 | 24.77526 | 54.88478 | 19870 ft | 381 kts | 211° |
| 2026-04-23 13:57 | 24.75179 | 54.87098 | 20463 ft | 384 kts | 211° |
| 2026-04-23 13:57 | 24.72819 | 54.85704 | 21068 ft | 387 kts | 211° |
| 2026-04-23 13:57 | 24.70442 | 54.84293 | 21656 ft | 390 kts | 211° |
| 2026-04-23 13:58 | 24.68048 | 54.82866 | 22250 ft | 392 kts | 212° |
| 2026-04-23 13:58 | 24.65667 | 54.81375 | 22825 ft | 395 kts | 213° |
| 2026-04-23 13:58 | 24.63290 | 54.79835 | 23395 ft | 398 kts | 214° |
| 2026-04-23 13:58 | 24.60899 | 54.78281 | 23884 ft | 401 kts | 214° |
| 2026-04-23 13:59 | 24.58482 | 54.76719 | 24355 ft | 405 kts | 214° |
| 2026-04-23 13:59 | 24.56039 | 54.75149 | 24856 ft | 408 kts | 214° |
| 2026-04-23 13:59 | 24.53581 | 54.73576 | 25336 ft | 411 kts | 214° |
| 2026-04-23 13:59 | 24.51094 | 54.71983 | 25817 ft | 415 kts | 214° |
| 2026-04-23 14:00 | 24.49443 | 54.70923 | 26124 ft | 417 kts | 215° |
| 2026-04-23 14:00 | 24.46076 | 54.68760 | 26765 ft | 421 kts | 215° |
| 2026-04-23 14:00 | 24.43531 | 54.67126 | 27224 ft | 425 kts | 215° |
| 2026-04-23 14:00 | 24.40974 | 54.65487 | 27664 ft | 428 kts | 215° |
| 2026-04-23 14:01 | 24.38394 | 54.63838 | 28118 ft | 431 kts | 215° |
| 2026-04-23 14:01 | 24.35787 | 54.62173 | 28565 ft | 434 kts | 216° |
| 2026-04-23 14:01 | 24.33170 | 54.60502 | 28990 ft | 437 kts | 216° |
| 2026-04-23 14:01 | 24.30533 | 54.58819 | 29401 ft | 440 kts | 216° |
| 2026-04-23 14:02 | 24.28045 | 54.56906 | 29775 ft | 435 kts | 227° |
| 2026-04-23 14:02 | 24.26045 | 54.54512 | 30129 ft | 429 kts | 239° |
| 2026-04-23 14:02 | 24.24555 | 54.51698 | 30441 ft | 427 kts | 248° |
| 2026-04-23 14:02 | 24.23324 | 54.48690 | 30747 ft | 429 kts | 249° |
| 2026-04-23 14:03 | 24.22057 | 54.45710 | 31047 ft | 433 kts | 247° |
| 2026-04-23 14:03 | 24.20678 | 54.42765 | 31365 ft | 437 kts | 245° |
| 2026-04-23 14:03 | 24.19208 | 54.39837 | 31659 ft | 440 kts | 244° |
| 2026-04-23 14:03 | 24.17708 | 54.36958 | 31941 ft | 443 kts | 244° |
| 2026-04-23 14:04 | 24.16162 | 54.34032 | 32240 ft | 445 kts | 243° |
| 2026-04-23 14:04 | 24.14604 | 54.31095 | 32528 ft | 448 kts | 243° |
| 2026-04-23 14:04 | 24.13035 | 54.28137 | 32809 ft | 450 kts | 243° |
| 2026-04-23 14:04 | 24.11463 | 54.25172 | 33110 ft | 453 kts | 243° |
| 2026-04-23 14:05 | 24.09892 | 54.22209 | 33387 ft | 455 kts | 243° |
| 2026-04-23 14:05 | 24.08283 | 54.19175 | 33670 ft | 457 kts | 243° |
| 2026-04-23 14:05 | 24.06685 | 54.16162 | 33934 ft | 460 kts | 244° |
| 2026-04-23 14:05 | 24.05076 | 54.13130 | 34266 ft | 460 kts | 244° |
| 2026-04-23 14:06 | 24.03469 | 54.10104 | 34610 ft | 460 kts | 244° |
| 2026-04-23 14:06 | 24.01867 | 54.07092 | 35039 ft | 457 kts | 244° |
| 2026-04-23 14:06 | 24.00270 | 54.04092 | 35527 ft | 454 kts | 244° |
| 2026-04-23 14:06 | 23.98693 | 54.01131 | 36022 ft | 449 kts | 244° |
| 2026-04-23 14:07 | 23.97123 | 53.98198 | 36382 ft | 444 kts | 247° |
| 2026-04-23 14:07 | 23.94181 | 53.92292 | 36914 ft | 443 kts | 244° |
| 2026-04-23 14:07 | 23.92579 | 53.89433 | 37332 ft | 441 kts | 244° |
| 2026-04-23 14:08 | 23.90989 | 53.86576 | 37757 ft | 439 kts | 245° |
| 2026-04-23 14:08 | 23.89419 | 53.83700 | 37817 ft | 442 kts | 245° |
| 2026-04-23 14:08 | 23.86329 | 53.77953 | 37822 ft | 438 kts | 245° |
| 2026-04-23 14:09 | 23.83261 | 53.72214 | 37813 ft | 439 kts | 245° |
| 2026-04-23 14:09 | 23.80172 | 53.66443 | 37812 ft | 439 kts | 245° |
| 2026-04-23 14:10 | 23.77090 | 53.60697 | 37814 ft | 439 kts | 245° |
| 2026-04-23 14:10 | 23.74004 | 53.54948 | 37811 ft | 438 kts | 245° |
| 2026-04-23 14:11 | 23.70922 | 53.49214 | 37809 ft | 438 kts | 245° |
| 2026-04-23 14:11 | 23.67840 | 53.43488 | 37806 ft | 438 kts | 245° |
| 2026-04-23 14:12 | 23.64756 | 53.37764 | 37808 ft | 438 kts | 245° |
| 2026-04-23 14:12 | 23.61689 | 53.32076 | 37807 ft | 438 kts | 245° |
| 2026-04-23 14:13 | 23.58580 | 53.26319 | 37806 ft | 438 kts | 245° |
| 2026-04-23 14:13 | 23.55508 | 53.20637 | 37806 ft | 438 kts | 245° |
| 2026-04-23 14:14 | 23.52417 | 53.14926 | 37806 ft | 438 kts | 245° |
| 2026-04-23 14:14 | 23.49318 | 53.09211 | 37802 ft | 436 kts | 244° |
| 2026-04-23 14:15 | 23.46276 | 53.03714 | 37809 ft | 401 kts | 245° |
| 2026-04-23 14:15 | 23.44903 | 53.01182 | 37802 ft | 375 kts | 246° |
| 2026-04-23 14:15 | 23.43623 | 52.98803 | 37802 ft | 355 kts | 246° |
| 2026-04-23 14:16 | 23.41101 | 52.94090 | 37806 ft | 368 kts | 246° |
| 2026-04-23 14:16 | 23.38451 | 52.89185 | 37801 ft | 383 kts | 245° |
| 2026-04-23 14:17 | 23.35682 | 52.84098 | 37800 ft | 398 kts | 245° |
| 2026-04-23 14:17 | 23.32813 | 52.78838 | 37803 ft | 411 kts | 245° |
| 2026-04-23 14:18 | 23.30354 | 52.74335 | 37802 ft | 422 kts | 245° |
| 2026-04-23 14:18 | 23.27314 | 52.68769 | 37803 ft | 435 kts | 245° |
| 2026-04-23 14:19 | 23.24186 | 52.63055 | 37799 ft | 438 kts | 244° |
| 2026-04-23 14:19 | 23.21076 | 52.57383 | 37801 ft | 437 kts | 245° |
| 2026-04-23 14:20 | 23.18160 | 52.51607 | 37795 ft | 433 kts | 250° |
| 2026-04-23 14:20 | 23.16049 | 52.45522 | 37795 ft | 430 kts | 255° |
| 2026-04-23 14:21 | 23.14114 | 52.39382 | 37796 ft | 430 kts | 255° |
| 2026-04-23 14:21 | 23.12165 | 52.33241 | 37800 ft | 430 kts | 255° |
| 2026-04-23 14:22 | 23.10214 | 52.27099 | 37802 ft | 430 kts | 255° |
| 2026-04-23 14:22 | 23.08259 | 52.20953 | 37799 ft | 430 kts | 255° |
| 2026-04-23 14:23 | 23.06306 | 52.14819 | 37802 ft | 430 kts | 255° |
| 2026-04-23 14:23 | 23.04349 | 52.08685 | 37802 ft | 430 kts | 255° |
| 2026-04-23 14:24 | 23.02390 | 52.02553 | 37805 ft | 430 kts | 255° |
| 2026-04-23 14:24 | 23.00432 | 51.96433 | 37806 ft | 429 kts | 255° |
| 2026-04-23 14:25 | 22.98471 | 51.90312 | 37803 ft | 429 kts | 255° |
| 2026-04-23 14:25 | 22.96510 | 51.84201 | 37808 ft | 429 kts | 255° |
| 2026-04-23 14:26 | 22.94547 | 51.78091 | 37806 ft | 429 kts | 255° |
| 2026-04-23 14:26 | 22.92584 | 51.71992 | 37804 ft | 428 kts | 255° |
| 2026-04-23 14:27 | 22.90618 | 51.65891 | 37803 ft | 428 kts | 254° |
| 2026-04-23 14:27 | 22.88653 | 51.59805 | 37800 ft | 428 kts | 254° |
| 2026-04-23 14:28 | 22.86688 | 51.53726 | 37801 ft | 427 kts | 254° |
| 2026-04-23 14:28 | 22.85087 | 51.47594 | 37801 ft | 424 kts | 261° |
| 2026-04-23 14:29 | 22.84323 | 51.41280 | 37800 ft | 422 kts | 268° |
| 2026-04-23 14:29 | 22.84241 | 51.34934 | 37796 ft | 421 kts | 270° |
| 2026-04-23 14:30 | 22.84200 | 51.28582 | 37799 ft | 421 kts | 270° |
| 2026-04-23 14:30 | 22.84155 | 51.22235 | 37797 ft | 421 kts | 270° |
| 2026-04-23 14:31 | 22.84110 | 51.15878 | 37801 ft | 422 kts | 270° |
| 2026-04-23 14:31 | 22.84062 | 51.09530 | 37803 ft | 422 kts | 270° |
| 2026-04-23 14:32 | 22.84012 | 51.03170 | 37808 ft | 422 kts | 270° |
| 2026-04-23 14:32 | 22.83959 | 50.96808 | 37805 ft | 422 kts | 270° |
| 2026-04-23 14:33 | 22.83903 | 50.90461 | 37805 ft | 422 kts | 270° |
| 2026-04-23 14:33 | 22.83844 | 50.84092 | 37806 ft | 422 kts | 270° |
| 2026-04-23 14:34 | 22.83784 | 50.77738 | 37803 ft | 422 kts | 270° |
| 2026-04-23 14:34 | 22.83720 | 50.71377 | 37804 ft | 422 kts | 270° |
| 2026-04-23 14:35 | 22.83655 | 50.65026 | 37800 ft | 422 kts | 270° |
| 2026-04-23 14:35 | 22.83586 | 50.58666 | 37805 ft | 422 kts | 270° |
| 2026-04-23 14:36 | 22.83516 | 50.52319 | 37802 ft | 422 kts | 270° |
| 2026-04-23 14:36 | 22.83442 | 50.45956 | 37800 ft | 422 kts | 270° |
| 2026-04-23 14:37 | 22.83366 | 50.39599 | 37803 ft | 422 kts | 270° |
| 2026-04-23 14:37 | 22.83283 | 50.33278 | 37797 ft | 406 kts | 270° |
| 2026-04-23 14:38 | 22.83242 | 50.30305 | 37802 ft | 381 kts | 270° |
| 2026-04-23 14:38 | 22.83207 | 50.27518 | 37799 ft | 359 kts | 270° |
| 2026-04-23 14:38 | 22.83175 | 50.24886 | 37799 ft | 340 kts | 270° |
| 2026-04-23 14:38 | 22.83144 | 50.22393 | 37801 ft | 322 kts | 270° |
| 2026-04-23 14:39 | 22.83113 | 50.20063 | 37791 ft | 305 kts | 270° |
| 2026-04-23 14:39 | 22.83083 | 50.17797 | 37794 ft | 289 kts | 270° |
| 2026-04-23 14:39 | 22.83055 | 50.15682 | 37793 ft | 273 kts | 270° |
| 2026-04-23 14:39 | 22.83027 | 50.13687 | 37791 ft | 256 kts | 270° |
| 2026-04-23 14:40 | 22.83000 | 50.11821 | 37678 ft | 243 kts | 270° |
| 2026-04-23 14:40 | 22.82973 | 50.09991 | 37115 ft | 244 kts | 270° |
| 2026-04-23 14:40 | 22.82968 | 50.08102 | 36359 ft | 259 kts | 274° |
| 2026-04-23 14:40 | 22.83028 | 50.06083 | 35667 ft | 280 kts | 271° |
| 2026-04-23 14:41 | 22.82995 | 50.03891 | 35195 ft | 299 kts | 271° |
| 2026-04-23 14:41 | 22.82839 | 50.01657 | 35007 ft | 294 kts | 269° |
| 2026-04-23 14:41 | 22.82753 | 49.99467 | 34797 ft | 289 kts | 270° |
| 2026-04-23 14:41 | 22.82739 | 49.97290 | 34479 ft | 288 kts | 271° |
| 2026-04-23 14:42 | 22.82734 | 49.95126 | 34156 ft | 288 kts | 270° |
| 2026-04-23 14:42 | 22.82720 | 49.92952 | 33834 ft | 288 kts | 270° |
| 2026-04-23 14:42 | 22.82696 | 49.90775 | 33492 ft | 288 kts | 270° |
| 2026-04-23 14:42 | 22.82666 | 49.88613 | 33185 ft | 287 kts | 270° |
| 2026-04-23 14:43 | 22.82634 | 49.86451 | 32891 ft | 286 kts | 270° |
| 2026-04-23 14:43 | 22.82600 | 49.84305 | 32613 ft | 284 kts | 270° |
| 2026-04-23 14:43 | 22.82566 | 49.82166 | 32345 ft | 283 kts | 270° |
| 2026-04-23 14:43 | 22.82533 | 49.80042 | 32082 ft | 281 kts | 269° |
| 2026-04-23 14:44 | 22.82499 | 49.77927 | 31823 ft | 280 kts | 269° |
| 2026-04-23 14:44 | 22.82465 | 49.75822 | 31573 ft | 279 kts | 269° |
| 2026-04-23 14:44 | 22.82431 | 49.73732 | 31329 ft | 277 kts | 269° |
| 2026-04-23 14:44 | 22.82397 | 49.71647 | 31092 ft | 276 kts | 269° |
| 2026-04-23 14:45 | 22.82363 | 49.69573 | 30865 ft | 275 kts | 269° |
| 2026-04-23 14:45 | 22.82329 | 49.67506 | 30640 ft | 273 kts | 269° |
| 2026-04-23 14:45 | 22.82294 | 49.65448 | 30430 ft | 272 kts | 269° |
| 2026-04-23 14:45 | 22.82261 | 49.63402 | 30206 ft | 271 kts | 271° |
| 2026-04-23 14:46 | 22.82238 | 49.61364 | 29998 ft | 270 kts | 269° |
| 2026-04-23 14:46 | 22.82202 | 49.59338 | 29786 ft | 268 kts | 269° |
| 2026-04-23 14:46 | 22.82162 | 49.57322 | 29556 ft | 268 kts | 269° |
| 2026-04-23 14:46 | 22.82123 | 49.55263 | 29509 ft | 277 kts | 269° |
| 2026-04-23 14:47 | 22.82084 | 49.53135 | 29550 ft | 288 kts | 269° |
| 2026-04-23 14:47 | 22.82044 | 49.50917 | 29652 ft | 300 kts | 269° |
| 2026-04-23 14:47 | 22.82003 | 49.48611 | 29750 ft | 313 kts | 269° |
| 2026-04-23 14:47 | 22.81960 | 49.46203 | 29854 ft | 325 kts | 269° |
| 2026-04-23 14:48 | 22.81915 | 49.43709 | 29951 ft | 338 kts | 269° |
| 2026-04-23 14:48 | 22.81869 | 49.41145 | 30042 ft | 351 kts | 269° |
| 2026-04-23 14:48 | 22.81819 | 49.38421 | 30137 ft | 363 kts | 269° |
| 2026-04-23 14:48 | 22.81768 | 49.35677 | 30229 ft | 375 kts | 269° |
| 2026-04-23 14:49 | 22.81714 | 49.32799 | 30321 ft | 387 kts | 269° |
| 2026-04-23 14:49 | 22.81658 | 49.29843 | 30412 ft | 399 kts | 269° |
| 2026-04-23 14:49 | 22.81540 | 49.23678 | 30589 ft | 419 kts | 269° |
| 2026-04-23 14:50 | 22.81414 | 49.17238 | 30734 ft | 436 kts | 269° |
| 2026-04-23 14:50 | 22.81280 | 49.10534 | 30936 ft | 451 kts | 269° |
| 2026-04-23 14:51 | 22.81211 | 49.07130 | 31252 ft | 454 kts | 269° |
| 2026-04-23 14:51 | 22.81141 | 49.03704 | 31589 ft | 455 kts | 269° |
| 2026-04-23 14:51 | 22.81069 | 49.00264 | 31905 ft | 458 kts | 269° |
| 2026-04-23 14:51 | 22.80997 | 48.96813 | 32248 ft | 459 kts | 269° |
| 2026-04-23 14:52 | 22.80924 | 48.93352 | 32680 ft | 458 kts | 269° |
| 2026-04-23 14:52 | 22.80850 | 48.89910 | 33157 ft | 457 kts | 269° |
| 2026-04-23 14:52 | 22.80775 | 48.86473 | 33616 ft | 456 kts | 269° |
| 2026-04-23 14:52 | 22.80700 | 48.83031 | 33782 ft | 454 kts | 269° |
| 2026-04-23 14:53 | 22.80550 | 48.76223 | 33786 ft | 451 kts | 269° |
| 2026-04-23 14:53 | 22.80397 | 48.69421 | 33787 ft | 451 kts | 269° |
| 2026-04-23 14:54 | 22.80241 | 48.62622 | 33787 ft | 451 kts | 269° |
| 2026-04-23 14:54 | 22.80082 | 48.55829 | 33786 ft | 451 kts | 269° |
| 2026-04-23 14:55 | 22.79920 | 48.49041 | 33788 ft | 450 kts | 269° |
| 2026-04-23 14:55 | 22.79757 | 48.42314 | 33785 ft | 450 kts | 269° |
| 2026-04-23 14:56 | 22.79590 | 48.35541 | 33786 ft | 449 kts | 269° |
| 2026-04-23 14:56 | 22.79420 | 48.28781 | 33783 ft | 448 kts | 269° |
| 2026-04-23 14:57 | 22.79248 | 48.22029 | 33781 ft | 448 kts | 269° |
| 2026-04-23 14:57 | 22.79110 | 48.16744 | 33775 ft | 446 kts | 283° |
| 2026-04-23 14:58 | 22.79144 | 48.15172 | 33729 ft | 443 kts | 273° |
| 2026-04-23 14:58 | 22.79023 | 48.08502 | 33741 ft | 443 kts | 268° |
| 2026-04-23 14:59 | 22.78743 | 48.01819 | 33748 ft | 445 kts | 268° |
| 2026-04-23 14:59 | 22.78532 | 47.95108 | 33778 ft | 446 kts | 268° |
| 2026-04-23 15:00 | 22.78345 | 47.88358 | 33784 ft | 449 kts | 268° |
| 2026-04-23 15:00 | 22.78156 | 47.81595 | 33785 ft | 449 kts | 268° |
| 2026-04-23 15:01 | 22.77964 | 47.74835 | 33781 ft | 449 kts | 268° |
| 2026-04-23 15:01 | 22.77769 | 47.68077 | 33789 ft | 449 kts | 268° |
| 2026-04-23 15:02 | 22.77571 | 47.61311 | 33792 ft | 449 kts | 268° |
| 2026-04-23 15:02 | 22.77369 | 47.54536 | 33794 ft | 450 kts | 268° |
| 2026-04-23 15:03 | 22.77200 | 47.48909 | 33798 ft | 450 kts | 268° |
| 2026-04-23 15:03 | 22.76960 | 47.41035 | 33794 ft | 450 kts | 268° |
| 2026-04-23 15:04 | 22.76750 | 47.34259 | 33802 ft | 450 kts | 268° |
| 2026-04-23 15:04 | 22.76573 | 47.28590 | 33807 ft | 450 kts | 268° |
| 2026-04-23 15:05 | 22.76361 | 47.21817 | 33803 ft | 450 kts | 268° |
| 2026-04-23 15:05 | 22.76403 | 47.15043 | 33803 ft | 450 kts | 274° |
| 2026-04-23 15:06 | 22.76962 | 47.08295 | 33798 ft | 450 kts | 274° |
| 2026-04-23 15:06 | 22.77505 | 47.01541 | 33797 ft | 451 kts | 274° |
| 2026-04-23 15:07 | 22.78039 | 46.94760 | 33805 ft | 451 kts | 274° |
| 2026-04-23 15:07 | 22.78566 | 46.88024 | 33805 ft | 452 kts | 274° |
| 2026-04-23 15:08 | 22.79095 | 46.81228 | 33809 ft | 453 kts | 274° |
| 2026-04-23 15:09 | 22.79885 | 46.71014 | 33816 ft | 454 kts | 274° |
| 2026-04-23 15:09 | 22.80408 | 46.64197 | 33823 ft | 455 kts | 274° |
| 2026-04-23 15:10 | 22.80930 | 46.57365 | 33828 ft | 455 kts | 274° |
| 2026-04-23 15:10 | 22.81449 | 46.50528 | 33825 ft | 455 kts | 274° |
| 2026-04-23 15:11 | 22.81966 | 46.43681 | 33826 ft | 456 kts | 274° |
| 2026-04-23 15:11 | 22.82479 | 46.36834 | 33825 ft | 456 kts | 274° |
| 2026-04-23 15:12 | 22.82986 | 46.29993 | 33822 ft | 456 kts | 274° |
| 2026-04-23 15:12 | 22.83492 | 46.23134 | 33814 ft | 456 kts | 274° |
| 2026-04-23 15:13 | 22.83994 | 46.16284 | 33804 ft | 456 kts | 274° |
| 2026-04-23 15:13 | 22.84494 | 46.09417 | 33787 ft | 457 kts | 274° |
| 2026-04-23 15:14 | 22.84993 | 46.02540 | 33782 ft | 458 kts | 273° |
| 2026-04-23 15:14 | 22.85488 | 45.95664 | 33792 ft | 458 kts | 273° |
| 2026-04-23 15:15 | 22.85981 | 45.88786 | 33792 ft | 458 kts | 273° |
| 2026-04-23 15:15 | 22.86471 | 45.81898 | 33795 ft | 458 kts | 273° |
| 2026-04-23 15:16 | 22.86957 | 45.75028 | 33795 ft | 457 kts | 273° |
| 2026-04-23 15:16 | 22.87440 | 45.68161 | 33792 ft | 456 kts | 273° |
| 2026-04-23 15:17 | 22.87918 | 45.61317 | 33794 ft | 455 kts | 273° |
| 2026-04-23 15:17 | 22.88393 | 45.54478 | 33791 ft | 454 kts | 272° |
| 2026-04-23 15:18 | 22.88864 | 45.47656 | 33785 ft | 453 kts | 272° |
| 2026-04-23 15:18 | 22.89328 | 45.40887 | 33783 ft | 452 kts | 272° |
| 2026-04-23 15:19 | 22.89791 | 45.34087 | 33775 ft | 452 kts | 272° |
| 2026-04-23 15:19 | 22.90250 | 45.27303 | 33779 ft | 451 kts | 272° |
| 2026-04-23 15:20 | 22.90707 | 45.20515 | 33776 ft | 451 kts | 272° |
| 2026-04-23 15:20 | 22.91159 | 45.13743 | 33773 ft | 450 kts | 272° |
| 2026-04-23 15:21 | 22.91613 | 45.06925 | 33776 ft | 450 kts | 272° |
| 2026-04-23 15:21 | 22.92058 | 45.00155 | 33776 ft | 450 kts | 272° |
| 2026-04-23 15:22 | 22.92497 | 44.93437 | 33777 ft | 450 kts | 272° |
| 2026-04-23 15:22 | 22.92937 | 44.86671 | 33780 ft | 450 kts | 272° |
| 2026-04-23 15:23 | 22.93373 | 44.79911 | 33780 ft | 449 kts | 272° |
| 2026-04-23 15:23 | 22.93808 | 44.73138 | 33778 ft | 450 kts | 272° |
| 2026-04-23 15:24 | 22.94149 | 44.66375 | 33779 ft | 449 kts | 268° |
| 2026-04-23 15:24 | 22.93867 | 44.59614 | 33777 ft | 449 kts | 266° |
| 2026-04-23 15:25 | 22.93575 | 44.52847 | 33777 ft | 449 kts | 266° |
| 2026-04-23 15:25 | 22.93284 | 44.46078 | 33784 ft | 450 kts | 266° |
| 2026-04-23 15:26 | 22.92985 | 44.39303 | 33779 ft | 450 kts | 266° |
| 2026-04-23 15:26 | 22.92682 | 44.32511 | 33784 ft | 451 kts | 266° |
| 2026-04-23 15:27 | 22.92375 | 44.25711 | 33789 ft | 452 kts | 266° |
| 2026-04-23 15:27 | 22.92065 | 44.18899 | 33786 ft | 453 kts | 266° |
| 2026-04-23 15:28 | 22.91751 | 44.12077 | 33795 ft | 454 kts | 266° |
| 2026-04-23 15:28 | 22.91433 | 44.05227 | 33802 ft | 455 kts | 266° |
| 2026-04-23 15:29 | 22.91113 | 43.98372 | 33811 ft | 456 kts | 266° |
| 2026-04-23 15:29 | 22.90788 | 43.91495 | 33826 ft | 457 kts | 266° |
| 2026-04-23 15:30 | 22.90460 | 43.84617 | 33836 ft | 457 kts | 266° |
| 2026-04-23 15:30 | 22.90128 | 43.77729 | 33844 ft | 458 kts | 266° |
| 2026-04-23 15:31 | 22.89796 | 43.70880 | 33869 ft | 458 kts | 266° |
| 2026-04-23 15:31 | 22.89456 | 43.63940 | 33862 ft | 458 kts | 265° |
| 2026-04-23 15:32 | 22.89117 | 43.57084 | 33871 ft | 458 kts | 265° |
| 2026-04-23 15:32 | 22.88773 | 43.50181 | 33862 ft | 459 kts | 265° |
| 2026-04-23 15:33 | 22.88426 | 43.43276 | 33865 ft | 459 kts | 265° |
| 2026-04-23 15:33 | 22.88075 | 43.36364 | 33870 ft | 459 kts | 265° |
| 2026-04-23 15:34 | 22.87720 | 43.29416 | 33872 ft | 458 kts | 265° |
| 2026-04-23 15:34 | 22.87367 | 43.22576 | 33875 ft | 457 kts | 265° |
| 2026-04-23 15:35 | 22.87009 | 43.15692 | 33875 ft | 457 kts | 265° |
| 2026-04-23 15:35 | 22.86649 | 43.08827 | 33879 ft | 455 kts | 265° |
| 2026-04-23 15:36 | 22.86286 | 43.01978 | 33877 ft | 454 kts | 265° |
| 2026-04-23 15:36 | 22.85922 | 42.95148 | 33869 ft | 454 kts | 265° |
| 2026-04-23 15:37 | 22.85556 | 42.88328 | 33862 ft | 453 kts | 265° |
| 2026-04-23 15:37 | 22.85246 | 42.82610 | 33859 ft | 453 kts | 265° |
| 2026-04-23 15:38 | 22.84814 | 42.74692 | 33853 ft | 453 kts | 265° |
| 2026-04-23 15:38 | 22.84439 | 42.67871 | 33858 ft | 453 kts | 265° |
| 2026-04-23 15:39 | 22.84060 | 42.61047 | 33865 ft | 453 kts | 265° |
| 2026-04-23 15:39 | 22.83679 | 42.54232 | 33870 ft | 454 kts | 265° |
| 2026-04-23 15:40 | 22.83294 | 42.47400 | 33870 ft | 454 kts | 265° |
| 2026-04-23 15:40 | 22.82906 | 42.40554 | 33873 ft | 455 kts | 265° |
| 2026-04-23 15:41 | 22.82514 | 42.33713 | 33878 ft | 455 kts | 265° |
| 2026-04-23 15:41 | 22.82120 | 42.26872 | 33880 ft | 455 kts | 265° |
| 2026-04-23 15:42 | 22.81723 | 42.20026 | 33881 ft | 455 kts | 265° |
| 2026-04-23 15:42 | 22.81323 | 42.13184 | 33876 ft | 455 kts | 265° |
| 2026-04-23 15:43 | 22.80920 | 42.06342 | 33874 ft | 455 kts | 265° |
| 2026-04-23 15:43 | 22.80515 | 41.99509 | 33878 ft | 454 kts | 265° |
| 2026-04-23 15:44 | 22.80109 | 41.92680 | 33877 ft | 453 kts | 265° |
| 2026-04-23 15:44 | 22.79558 | 41.85889 | 33859 ft | 452 kts | 263° |
| 2026-04-23 15:45 | 22.78915 | 41.79120 | 33859 ft | 451 kts | 263° |
| 2026-04-23 15:45 | 22.78278 | 41.72356 | 33860 ft | 451 kts | 263° |
| 2026-04-23 15:46 | 22.77636 | 41.65646 | 33862 ft | 450 kts | 263° |
| 2026-04-23 15:46 | 22.76987 | 41.58919 | 33864 ft | 449 kts | 263° |
| 2026-04-23 15:47 | 22.76336 | 41.52207 | 33866 ft | 447 kts | 263° |
| 2026-04-23 15:47 | 22.75685 | 41.45513 | 33866 ft | 446 kts | 263° |
| 2026-04-23 15:48 | 22.75139 | 41.39931 | 33867 ft | 445 kts | 263° |
| 2026-04-23 15:48 | 22.74371 | 41.33299 | 33862 ft | 443 kts | 258° |
| 2026-04-23 15:49 | 22.72718 | 41.26893 | 33862 ft | 441 kts | 250° |
| 2026-04-23 15:49 | 22.70082 | 41.19731 | 33861 ft | 440 kts | 249° |
| 2026-04-23 15:50 | 22.68198 | 41.14571 | 33872 ft | 439 kts | 249° |
| 2026-04-23 15:50 | 22.65945 | 41.08418 | 33862 ft | 439 kts | 249° |
| 2026-04-23 15:51 | 22.63690 | 41.02277 | 33860 ft | 439 kts | 249° |
| 2026-04-23 15:51 | 22.61431 | 40.96136 | 33864 ft | 440 kts | 249° |
| 2026-04-23 15:52 | 22.59165 | 40.89986 | 33864 ft | 440 kts | 248° |
| 2026-04-23 15:52 | 22.56910 | 40.83871 | 33864 ft | 441 kts | 248° |
| 2026-04-23 15:53 | 22.54633 | 40.77708 | 33877 ft | 442 kts | 248° |
| 2026-04-23 15:53 | 22.52349 | 40.71532 | 33882 ft | 442 kts | 248° |
| 2026-04-23 15:54 | 22.50065 | 40.65364 | 33895 ft | 443 kts | 248° |
| 2026-04-23 15:54 | 22.47768 | 40.59172 | 33915 ft | 444 kts | 248° |
| 2026-04-23 15:55 | 22.45466 | 40.52971 | 33916 ft | 444 kts | 248° |
| 2026-04-23 15:55 | 22.43162 | 40.46775 | 33930 ft | 445 kts | 248° |
| 2026-04-23 15:56 | 22.40854 | 40.40577 | 33949 ft | 444 kts | 248° |
| 2026-04-23 15:56 | 22.38543 | 40.34380 | 33949 ft | 444 kts | 248° |
| 2026-04-23 15:57 | 22.36230 | 40.28185 | 33949 ft | 445 kts | 248° |
| 2026-04-23 15:57 | 22.33916 | 40.21997 | 33937 ft | 445 kts | 248° |
| 2026-04-23 15:58 | 22.31598 | 40.15806 | 33934 ft | 445 kts | 248° |
| 2026-04-23 15:58 | 22.29273 | 40.09604 | 33928 ft | 445 kts | 248° |
| 2026-04-23 15:59 | 22.26901 | 40.03439 | 33920 ft | 445 kts | 245° |
| 2026-04-23 15:59 | 22.23741 | 39.97703 | 33902 ft | 446 kts | 234° |
| 2026-04-23 16:00 | 22.19066 | 39.93290 | 33894 ft | 455 kts | 213° |
| 2026-04-23 16:00 | 22.16150 | 39.91917 | 33882 ft | 462 kts | 202° |
| 2026-04-23 16:00 | 22.12976 | 39.91184 | 33881 ft | 471 kts | 192° |
| 2026-04-23 16:00 | 22.09675 | 39.91157 | 33883 ft | 482 kts | 180° |
| 2026-04-23 16:01 | 22.06342 | 39.91823 | 33881 ft | 490 kts | 172° |
| 2026-04-23 16:01 | 21.99735 | 39.93633 | 33872 ft | 486 kts | 175° |
| 2026-04-23 16:02 | 21.93093 | 39.94079 | 33862 ft | 472 kts | 190° |
| 2026-04-23 16:02 | 21.89898 | 39.93481 | 33864 ft | 464 kts | 201° |
| 2026-04-23 16:02 | 21.86928 | 39.92204 | 33865 ft | 456 kts | 212° |
| 2026-04-23 16:02 | 21.84318 | 39.90315 | 33860 ft | 451 kts | 223° |
| 2026-04-23 16:03 | 21.82167 | 39.87900 | 33852 ft | 447 kts | 234° |
| 2026-04-23 16:03 | 21.80547 | 39.85044 | 33841 ft | 446 kts | 245° |
| 2026-04-23 16:03 | 21.79541 | 39.81891 | 33841 ft | 448 kts | 256° |
| 2026-04-23 16:03 | 21.79187 | 39.78606 | 33834 ft | 451 kts | 267° |
| 2026-04-23 16:04 | 21.79491 | 39.75245 | 33818 ft | 453 kts | 278° |
| 2026-04-23 16:04 | 21.80445 | 39.72031 | 33716 ft | 448 kts | 289° |
| 2026-04-23 16:04 | 21.81980 | 39.69164 | 33467 ft | 438 kts | 302° |
| 2026-04-23 16:04 | 21.84010 | 39.66803 | 33252 ft | 424 kts | 313° |
| 2026-04-23 16:05 | 21.85497 | 39.65485 | 33108 ft | 412 kts | 315° |
| 2026-04-23 16:05 | 21.88485 | 39.63036 | 32309 ft | 399 kts | 316° |
| 2026-04-23 16:05 | 21.90564 | 39.61128 | 31509 ft | 386 kts | 305° |
| 2026-04-23 16:05 | 21.92105 | 39.58842 | 30761 ft | 372 kts | 292° |
| 2026-04-23 16:06 | 21.93096 | 39.56314 | 30030 ft | 362 kts | 283° |
| 2026-04-23 16:06 | 21.93718 | 39.53712 | 29204 ft | 356 kts | 278° |
| 2026-04-23 16:06 | 21.93941 | 39.51618 | 28549 ft | 350 kts | 267° |
| 2026-04-23 16:06 | 21.93683 | 39.49047 | 27977 ft | 343 kts | 257° |
| 2026-04-23 16:07 | 21.92970 | 39.46613 | 27445 ft | 340 kts | 247° |
| 2026-04-23 16:07 | 21.91947 | 39.44350 | 26915 ft | 338 kts | 244° |
| 2026-04-23 16:07 | 21.90923 | 39.42089 | 26445 ft | 334 kts | 245° |
| 2026-04-23 16:07 | 21.89925 | 39.39844 | 25942 ft | 332 kts | 245° |
| 2026-04-23 16:08 | 21.88932 | 39.37605 | 25455 ft | 330 kts | 245° |
| 2026-04-23 16:08 | 21.87946 | 39.35384 | 24995 ft | 327 kts | 245° |
| 2026-04-23 16:08 | 21.86974 | 39.33199 | 24792 ft | 318 kts | 244° |
| 2026-04-23 16:08 | 21.86036 | 39.31098 | 24696 ft | 305 kts | 244° |
| 2026-04-23 16:09 | 21.85138 | 39.29085 | 24611 ft | 293 kts | 244° |
| 2026-04-23 16:09 | 21.84269 | 39.27141 | 24477 ft | 283 kts | 244° |
| 2026-04-23 16:09 | 21.83358 | 39.25277 | 24143 ft | 281 kts | 235° |
| 2026-04-23 16:09 | 21.81929 | 39.23846 | 23796 ft | 285 kts | 214° |
| 2026-04-23 16:10 | 21.80050 | 39.23116 | 23473 ft | 293 kts | 193° |
| 2026-04-23 16:10 | 21.78003 | 39.23239 | 23115 ft | 305 kts | 171° |
| 2026-04-23 16:10 | 21.75994 | 39.24031 | 22752 ft | 307 kts | 167° |
| 2026-04-23 16:10 | 21.74007 | 39.24834 | 22403 ft | 303 kts | 167° |
| 2026-04-23 16:11 | 21.72036 | 39.25612 | 21850 ft | 301 kts | 167° |
| 2026-04-23 16:11 | 21.70097 | 39.26378 | 21475 ft | 292 kts | 167° |
| 2026-04-23 16:11 | 21.68195 | 39.27130 | 20836 ft | 291 kts | 168° |
| 2026-04-23 16:11 | 21.66299 | 39.27876 | 20335 ft | 289 kts | 167° |
| 2026-04-23 16:12 | 21.64415 | 39.28619 | 19828 ft | 287 kts | 167° |
| 2026-04-23 16:12 | 21.62542 | 39.29359 | 19343 ft | 285 kts | 167° |
| 2026-04-23 16:12 | 21.60707 | 39.30080 | 18861 ft | 284 kts | 167° |
| 2026-04-23 16:12 | 21.58859 | 39.30803 | 18407 ft | 281 kts | 167° |
| 2026-04-23 16:13 | 21.57026 | 39.31519 | 17920 ft | 280 kts | 167° |
| 2026-04-23 16:13 | 21.53409 | 39.32936 | 16983 ft | 273 kts | 167° |
| 2026-04-23 16:13 | 21.51634 | 39.33632 | 16536 ft | 269 kts | 167° |
| 2026-04-23 16:14 | 21.49885 | 39.34318 | 16042 ft | 267 kts | 167° |
| 2026-04-23 16:14 | 21.48148 | 39.34997 | 15585 ft | 264 kts | 167° |
| 2026-04-23 16:14 | 21.46430 | 39.35670 | 15140 ft | 261 kts | 167° |
| 2026-04-23 16:14 | 21.44733 | 39.36335 | 14710 ft | 259 kts | 167° |
| 2026-04-23 16:15 | 21.43052 | 39.36993 | 14279 ft | 256 kts | 167° |
| 2026-04-23 16:15 | 21.41389 | 39.37645 | 13838 ft | 253 kts | 167° |
| 2026-04-23 16:15 | 21.39741 | 39.38291 | 13410 ft | 250 kts | 166° |
| 2026-04-23 16:15 | 21.38116 | 39.38929 | 12936 ft | 247 kts | 167° |
| 2026-04-23 16:16 | 21.36466 | 39.39207 | 12384 ft | 236 kts | 192° |
| 2026-04-23 16:16 | 21.34951 | 39.38648 | 11875 ft | 229 kts | 215° |
| 2026-04-23 16:16 | 21.33836 | 39.37454 | 11371 ft | 228 kts | 238° |
| 2026-04-23 16:16 | 21.33234 | 39.35879 | 10870 ft | 229 kts | 248° |
| 2026-04-23 16:17 | 21.32705 | 39.34270 | 10424 ft | 228 kts | 247° |
| 2026-04-23 16:17 | 21.32224 | 39.32657 | 9929 ft | 230 kts | 259° |
| 2026-04-23 16:17 | 21.32409 | 39.30940 | 9427 ft | 240 kts | 288° |
| 2026-04-23 16:17 | 21.33413 | 39.29483 | 8913 ft | 251 kts | 317° |
| 2026-04-23 16:18 | 21.35000 | 39.28643 | 8425 ft | 258 kts | 336° |
| 2026-04-23 16:18 | 21.36686 | 39.28024 | 7977 ft | 254 kts | 337° |
| 2026-04-23 16:18 | 21.38312 | 39.27419 | 7306 ft | 239 kts | 337° |
| 2026-04-23 16:18 | 21.39863 | 39.26839 | 6209 ft | 238 kts | 338° |
| 2026-04-23 16:19 | 21.41409 | 39.26257 | 5683 ft | 239 kts | 338° |
| 2026-04-23 16:19 | 21.42993 | 39.25630 | 5168 ft | 245 kts | 338° |
| 2026-04-23 16:19 | 21.44601 | 39.25000 | 4660 ft | 246 kts | 338° |
| 2026-04-23 16:19 | 21.46204 | 39.24368 | 4127 ft | 244 kts | 338° |
| 2026-04-23 16:20 | 21.47785 | 39.23743 | 3662 ft | 238 kts | 338° |
| 2026-04-23 16:20 | 21.49286 | 39.23147 | 3354 ft | 224 kts | 339° |
| 2026-04-23 16:20 | 21.50725 | 39.22576 | 3089 ft | 219 kts | 338° |
| 2026-04-23 16:20 | 21.52158 | 39.22011 | 2812 ft | 216 kts | 339° |
| 2026-04-23 16:21 | 21.53501 | 39.21483 | 2547 ft | 200 kts | 338° |
| 2026-04-23 16:21 | 21.54730 | 39.20981 | 2270 ft | 176 kts | 339° |
| 2026-04-23 16:21 | 21.55806 | 39.20515 | 1983 ft | 158 kts | 337° |
| 2026-04-23 16:21 | 21.56800 | 39.20145 | 1810 ft | 150 kts | 340° |
| 2026-04-23 16:22 | 21.57778 | 39.19783 | 1664 ft | 144 kts | 339° |
| 2026-04-23 16:22 | 21.58711 | 39.19411 | 1522 ft | 141 kts | 339° |
| 2026-04-23 16:22 | 21.59617 | 39.19055 | 1299 ft | 139 kts | 338° |
| 2026-04-23 16:22 | 21.60502 | 39.18680 | 1101 ft | 138 kts | 339° |
| 2026-04-23 16:23 | 21.61399 | 39.18369 | 919 ft | 133 kts | 342° |
| 2026-04-23 16:23 | 21.62270 | 39.18021 | 736 ft | 132 kts | 338° |
| 2026-04-23 16:23 | 21.63132 | 39.17665 | 633 ft | 137 kts | 336° |
| 2026-04-23 16:23 | 21.64011 | 39.17302 | 511 ft | 134 kts | 337° |
| 2026-04-23 16:24 | 21.64891 | 39.16950 | 371 ft | 136 kts | 340° |
| 2026-04-23 16:24 | 21.65778 | 39.16619 | 155 ft | 133 kts | 338° |
| 2026-04-23 16:24 | 21.66633 | 39.16291 | 43 ft | 121 kts | 339° |
| 2026-04-23 16:24 | 21.67271 | 39.16024 | 39 ft | 80 kts | 337° |
| 2026-04-23 16:25 | 21.67691 | 39.15869 | 41 ft | 49 kts | 340° |
| 2026-04-23 16:25 | 21.67958 | 39.15769 | 39 ft | 36 kts | 339° |
| 2026-04-23 16:25 | 21.68175 | 39.15725 | 37 ft | 29 kts | 356° |
| 2026-04-23 16:25 | 21.68358 | 39.15763 | 33 ft | 20 kts | 17° |
| 2026-04-23 16:26 | 21.68384 | 39.15772 | 33 ft | 2 kts | 18° |
| 2026-04-23 16:26 | 21.68403 | 39.15776 | 33 ft | 3 kts | 353° |
| 2026-04-23 16:26 | 21.68435 | 39.15772 | 33 ft | 6 kts | 351° |
| 2026-04-23 16:26 | 21.68466 | 39.15770 | 34 ft | 4 kts | 15° |
| 2026-04-23 16:27 | 21.68493 | 39.15789 | 34 ft | 5 kts | 47° |
| 2026-04-23 16:27 | 21.68500 | 39.15831 | 35 ft | 7 kts | 107° |
| 2026-04-23 16:27 | 21.68462 | 39.15870 | 35 ft | 10 kts | 161° |
| 2026-04-23 16:27 | 21.68378 | 39.15900 | 36 ft | 15 kts | 161° |
| 2026-04-23 16:28 | 21.68264 | 39.15943 | 37 ft | 20 kts | 160° |
| 2026-04-23 16:28 | 21.68118 | 39.16001 | 36 ft | 25 kts | 158° |
| 2026-04-23 16:28 | 21.67946 | 39.16071 | 37 ft | 28 kts | 161° |
| 2026-04-23 16:28 | 21.67764 | 39.16141 | 36 ft | 18 kts | 160° |
| 2026-04-23 16:29 | 21.67668 | 39.16179 | 36 ft | 17 kts | 160° |
| 2026-04-23 16:29 | 21.67605 | 39.16203 | 37 ft | 10 kts | 160° |
| 2026-04-23 16:29 | 21.67533 | 39.16262 | 35 ft | 15 kts | 106° |
| 2026-04-23 16:29 | 21.67562 | 39.16358 | 39 ft | 13 kts | 84° |
| 2026-04-23 16:30 | 21.67520 | 39.16424 | 46 ft | 11 kts | 150° |
| 2026-04-23 16:30 | 21.67425 | 39.16463 | 43 ft | 19 kts | 161° |
| 2026-04-23 16:30 | 21.67282 | 39.16521 | 40 ft | 22 kts | 138° |
| 2026-04-23 16:30 | 21.67229 | 39.16633 | 42 ft | 16 kts | 95° |
| 2026-04-23 16:31 | 21.67220 | 39.16766 | 42 ft | 18 kts | 97° |
| 2026-04-23 16:31 | 21.67221 | 39.16880 | 41 ft | 17 kts | 79° |
| 2026-04-23 16:31 | 21.67251 | 39.16977 | 42 ft | 12 kts | 76° |
| 2026-04-23 16:31 | 21.67231 | 39.17034 | 43 ft | 6 kts | 137° |
| 2026-04-23 16:32 | 21.67214 | 39.17050 | 44 ft | 2 kts | 139° |
| 2026-04-23 16:32 | 21.67211 | 39.17053 | 45 ft | 1 kts | 139° |
| 2026-04-23 16:32 | 21.67207 | 39.17057 | 45 ft | 0 kts | 139° |